Terminal Aerodrome Forecast
Issued by NWS Cleveland, OH

Home | Current Version | Previous Version | Graphics & Text | Print | Product List | Glossary On
Versions: 1 2 3 4 5 6 7 8 9 10 11 12 13 14 15 16 17 18 19
324
FTUS41 KCLE 212323
TAFYNG
TAF
KYNG 212323Z 2200/2224 22008KT P6SM SCT050 BKN150
     FM221100 22006KT P6SM VCTS BKN040CB
     FM221600 25012KT P6SM BKN045=

USA.gov is the U.S. government's official web portal to all federal, state and local government web resources and services.